Flugplatz Heppenheim

Für EDEP sind keine METAR/TAF Berichte vorhanden.
Es werden die Flugwettermeldungen vom Flugplatz Mannheim-City in 18 km Entfernung angezeigt.

Bericht für EDFM

vom 31.05. um 09:20 UTC

Wind 8 kt aus 40°

Sichtweite 10 km oder mehr

gute Sicht, keine Wolken < 5000 ft, keine CB, keine Wettererscheinungen (CAVOK)

Temperatur 17.0°C

Taupunkt 3.0°C

Luftfeuchtigkeit 39%

Luftdruck 1021 hPa

EDFM 310920Z 04008KT 340V090 CAVOK 17/03 Q1021
Keine Prognose (TAF) verfügbar.
Impressum